createdAt,value
2018-12-22T00:01:58.945Z,11.10
2018-12-22T00:04:29.955Z,11.10
2018-12-22T00:07:00.965Z,11.10
2018-12-22T00:09:31.933Z,11.10
2018-12-22T00:12:03.029Z,11.10
2018-12-22T00:14:34.022Z,11.10
2018-12-22T00:17:05.078Z,11.20
2018-12-22T00:19:36.082Z,11.20
2018-12-22T00:22:07.070Z,11.20
2018-12-22T00:24:38.096Z,11.20
2018-12-22T00:27:09.101Z,11.10
2018-12-22T00:29:40.116Z,11.10
2018-12-22T00:32:11.138Z,11.10
2018-12-22T00:34:44.332Z,11.10
2018-12-22T00:37:15.434Z,11.10
2018-12-22T00:39:46.417Z,11.20
2018-12-22T00:42:17.433Z,11.20
2018-12-22T00:44:48.561Z,11.20
2018-12-22T00:47:19.562Z,11.20
2018-12-22T00:49:50.584Z,11.20
2018-12-22T00:52:21.554Z,11.20
2018-12-22T00:54:52.552Z,11.20
2018-12-22T00:57:23.574Z,11.20
2018-12-22T00:59:54.585Z,11.20
2018-12-22T01:02:25.589Z,11.20
2018-12-22T01:04:56.954Z,11.20
2018-12-22T01:07:28.100Z,11.20
2018-12-22T01:09:59.080Z,11.20
2018-12-22T01:12:30.080Z,11.20
2018-12-22T01:15:01.101Z,11.20
2018-12-22T01:17:32.107Z,11.20
2018-12-22T01:20:03.227Z,11.20
2018-12-22T01:22:34.225Z,11.30
2018-12-22T01:25:05.778Z,11.30
2018-12-22T01:27:36.900Z,11.30
2018-12-22T01:30:08.514Z,11.30
2018-12-22T01:32:39.736Z,11.40
2018-12-22T01:35:10.844Z,11.40
2018-12-22T01:37:41.822Z,11.40
2018-12-22T01:40:12.815Z,11.40
2018-12-22T01:42:43.817Z,11.40
2018-12-22T01:45:14.819Z,11.50
2018-12-22T01:47:45.836Z,11.50
2018-12-22T01:50:17.140Z,11.50
2018-12-22T01:52:48.107Z,11.50
2018-12-22T01:55:19.094Z,11.50
2018-12-22T01:57:50.068Z,11.50
2018-12-22T02:00:21.089Z,11.50
2018-12-22T02:02:52.083Z,11.60
2018-12-22T02:05:23.077Z,11.50
2018-12-22T02:07:54.068Z,11.50
2018-12-22T02:10:25.090Z,11.50
2018-12-22T02:12:56.075Z,11.50
2018-12-22T02:15:27.766Z,11.60
2018-12-22T02:17:58.742Z,11.60
2018-12-22T02:20:29.738Z,11.60
2018-12-22T02:23:00.728Z,11.60
2018-12-22T02:25:31.696Z,11.70
2018-12-22T02:28:02.779Z,11.70
2018-12-22T02:30:33.796Z,11.70
2018-12-22T02:33:04.768Z,11.80
2018-12-22T02:35:35.841Z,11.80
2018-12-22T02:38:06.868Z,11.80
2018-12-22T02:40:37.852Z,11.80
2018-12-22T02:43:08.885Z,11.80
2018-12-22T02:45:39.968Z,11.80
2018-12-22T02:48:10.974Z,11.70
2018-12-22T02:50:41.973Z,11.80
2018-12-22T02:53:12.980Z,11.80
2018-12-22T02:55:43.988Z,11.80
2018-12-22T02:58:14.974Z,11.80
2018-12-22T03:00:46.016Z,11.80
2018-12-22T03:03:17.013Z,11.70
2018-12-22T03:05:47.967Z,11.80
2018-12-22T03:08:19.229Z,11.70
2018-12-22T03:10:50.208Z,11.80
2018-12-22T03:13:21.400Z,11.80
2018-12-22T03:15:52.426Z,11.80
2018-12-22T03:18:23.432Z,11.80
2018-12-22T03:20:54.441Z,11.80
2018-12-22T03:23:25.447Z,11.80
2018-12-22T03:25:56.521Z,11.80
2018-12-22T03:28:27.501Z,11.80
2018-12-22T03:30:58.513Z,11.80
2018-12-22T03:33:29.514Z,11.80
2018-12-22T03:36:00.518Z,11.80
2018-12-22T03:38:31.494Z,11.80
2018-12-22T03:41:02.638Z,11.80
2018-12-22T03:43:33.614Z,11.80
2018-12-22T03:46:04.616Z,11.80
2018-12-22T03:48:35.604Z,11.80
2018-12-22T03:51:06.612Z,11.80
2018-12-22T03:53:37.643Z,11.80
2018-12-22T03:56:08.612Z,11.80
2018-12-22T03:58:39.554Z,11.80
2018-12-22T04:01:10.554Z,11.80
2018-12-22T04:03:41.537Z,11.80
2018-12-22T04:06:12.545Z,11.80
2018-12-22T04:08:43.512Z,11.80
2018-12-22T04:11:14.516Z,11.80
2018-12-22T04:13:45.509Z,11.80
2018-12-22T04:16:16.510Z,11.80
2018-12-22T04:18:47.586Z,11.80
2018-12-22T04:21:18.635Z,11.80
2018-12-22T04:23:49.628Z,11.80
2018-12-22T04:26:20.623Z,11.80
2018-12-22T04:28:51.606Z,11.80
2018-12-22T04:31:22.585Z,11.80
2018-12-22T04:33:53.715Z,11.80
2018-12-22T04:36:24.846Z,11.80
2018-12-22T04:38:55.858Z,11.70
2018-12-22T04:41:26.847Z,11.70
2018-12-22T04:43:57.856Z,11.70
2018-12-22T04:46:28.819Z,11.60
2018-12-22T04:48:59.835Z,11.60
2018-12-22T04:51:30.941Z,11.60
2018-12-22T04:54:01.957Z,11.60
2018-12-22T04:56:32.940Z,11.60
2018-12-22T04:59:04.054Z,11.50
2018-12-22T05:01:35.037Z,11.50
2018-12-22T05:04:06.046Z,11.40
2018-12-22T05:06:37.124Z,11.40
2018-12-22T05:09:08.178Z,11.30
2018-12-22T05:11:39.542Z,11.30
2018-12-22T05:14:10.573Z,11.20
2018-12-22T05:16:41.566Z,11.20
2018-12-22T05:19:12.560Z,11.10
2018-12-22T05:21:43.650Z,11.00
2018-12-22T05:24:14.694Z,11.00
2018-12-22T05:26:45.702Z,11.00
2018-12-22T05:29:16.700Z,10.90
2018-12-22T05:31:47.706Z,10.90
2018-12-22T05:34:18.712Z,10.80
2018-12-22T05:36:49.693Z,10.80
2018-12-22T05:39:20.678Z,10.70
2018-12-22T05:41:51.684Z,10.70
2018-12-22T05:44:22.691Z,10.70
2018-12-22T05:46:53.681Z,10.70
2018-12-22T05:49:24.687Z,10.60
2018-12-22T05:51:55.669Z,10.60
2018-12-22T05:54:26.678Z,10.60
2018-12-22T05:57:04.313Z,10.50
2018-12-22T05:59:35.706Z,10.50
2018-12-22T06:02:06.691Z,10.50
2018-12-22T06:04:37.677Z,10.50
2018-12-22T06:07:08.686Z,10.50
2018-12-22T06:09:39.676Z,10.50
2018-12-22T06:12:10.698Z,10.40
2018-12-22T06:14:42.841Z,10.40
2018-12-22T06:17:13.836Z,10.40
2018-12-22T06:19:44.824Z,10.40
2018-12-22T06:22:15.804Z,10.30
2018-12-22T06:24:47.497Z,10.30
2018-12-22T06:27:18.583Z,10.20
2018-12-22T06:29:49.660Z,10.20
2018-12-22T06:32:20.648Z,10.20
2018-12-22T06:34:52.256Z,10.10
2018-12-22T06:37:23.283Z,10.10
2018-12-22T06:39:54.275Z,10.10
2018-12-22T06:42:25.301Z,10.10
2018-12-22T06:44:56.311Z,10.10
2018-12-22T06:47:33.749Z,10.20
2018-12-22T06:50:05.188Z,10.20
2018-12-22T06:52:36.194Z,10.20
2018-12-22T06:55:07.318Z,10.20
2018-12-22T06:57:38.315Z,10.20
2018-12-22T07:00:17.431Z,10.20
2018-12-22T07:02:43.590Z,10.20
2018-12-22T07:05:14.572Z,10.10
2018-12-22T07:07:45.622Z,10.10
2018-12-22T07:10:16.640Z,10.10
2018-12-22T07:12:47.611Z,10.10
2018-12-22T07:15:18.606Z,10.10
2018-12-22T07:17:49.578Z,10.10
2018-12-22T07:20:20.620Z,10.00
2018-12-22T07:22:51.664Z,10.00
2018-12-22T07:25:22.636Z,10.00
2018-12-22T07:27:53.636Z,9.90
2018-12-22T07:30:26.276Z,9.90
2018-12-22T07:32:57.680Z,9.90
2018-12-22T07:35:28.757Z,9.90
2018-12-22T07:37:59.770Z,9.90
2018-12-22T07:40:30.741Z,9.90
2018-12-22T07:43:01.769Z,9.90
2018-12-22T07:45:32.739Z,9.80
2018-12-22T07:48:03.731Z,9.80
2018-12-22T07:50:34.708Z,9.80
2018-12-22T07:53:05.770Z,9.80
2018-12-22T07:55:36.782Z,9.80
2018-12-22T07:58:07.774Z,9.90
2018-12-22T08:00:38.750Z,9.80
2018-12-22T08:03:09.758Z,9.90
2018-12-22T08:05:40.730Z,9.90
2018-12-22T08:08:11.831Z,9.90
2018-12-22T08:10:42.829Z,10.00
2018-12-22T08:13:13.835Z,10.00
2018-12-22T08:15:44.837Z,10.00
2018-12-22T08:18:15.834Z,10.10
2018-12-22T08:20:46.833Z,10.10
2018-12-22T08:23:18.650Z,10.10
2018-12-22T08:25:49.638Z,10.10
2018-12-22T08:28:20.613Z,10.20
2018-12-22T08:30:51.617Z,10.20
2018-12-22T08:33:22.622Z,10.20
2018-12-22T08:35:53.604Z,10.20
2018-12-22T08:38:24.627Z,10.30
2018-12-22T08:40:55.630Z,10.40
2018-12-22T08:43:33.424Z,10.50
2018-12-22T08:46:04.466Z,10.60
2018-12-22T08:48:35.514Z,10.80
2018-12-22T08:51:06.509Z,10.80
2018-12-22T08:53:37.515Z,10.90
2018-12-22T08:56:08.553Z,10.90
2018-12-22T08:58:39.569Z,10.90
2018-12-22T09:01:10.556Z,11.00
2018-12-22T09:03:41.642Z,11.00
2018-12-22T09:06:12.663Z,11.10
2018-12-22T09:08:43.684Z,11.20
2018-12-22T09:11:14.673Z,11.20
2018-12-22T09:13:45.683Z,11.30
2018-12-22T09:16:16.827Z,11.30
2018-12-22T09:18:47.837Z,11.40
2018-12-22T09:21:19.481Z,11.40
2018-12-22T09:23:50.469Z,11.50
2018-12-22T09:26:21.633Z,11.50
2018-12-22T09:28:52.623Z,11.60
2018-12-22T09:31:23.646Z,11.60
2018-12-22T09:33:54.711Z,11.70
2018-12-22T09:36:25.720Z,11.70
2018-12-22T09:38:56.774Z,11.70
2018-12-22T09:41:27.772Z,11.80
2018-12-22T09:43:58.826Z,11.80
2018-12-22T09:46:29.947Z,11.80
2018-12-22T09:49:00.931Z,11.90
2018-12-22T09:51:31.978Z,11.90
2018-12-22T09:54:03.090Z,12.00
2018-12-22T09:56:34.094Z,12.10
2018-12-22T09:59:06.460Z,12.10
2018-12-22T10:01:37.674Z,12.20
2018-12-22T10:04:08.679Z,12.30
2018-12-22T10:06:39.687Z,12.30
2018-12-22T10:09:10.661Z,12.40
2018-12-22T10:11:41.636Z,12.50
2018-12-22T10:14:12.682Z,12.50
2018-12-22T10:16:43.697Z,12.50
2018-12-22T10:19:14.715Z,12.50
2018-12-22T10:21:45.715Z,12.70
2018-12-22T10:24:17.134Z,12.70
2018-12-22T10:26:48.120Z,12.70
2018-12-22T10:29:19.238Z,12.60
2018-12-22T10:31:50.328Z,12.70
2018-12-22T10:34:21.352Z,12.70
2018-12-22T10:36:52.405Z,12.60
2018-12-22T10:39:23.407Z,12.60
2018-12-22T10:41:55.537Z,12.60
2018-12-22T10:44:26.881Z,12.60
2018-12-22T10:46:57.877Z,12.60
2018-12-22T10:49:28.859Z,12.60
2018-12-22T10:52:01.121Z,12.70
2018-12-22T10:54:32.129Z,12.70
2018-12-22T10:57:04.167Z,12.60
2018-12-22T10:59:35.346Z,12.70
2018-12-22T11:02:06.430Z,12.70
2018-12-22T11:04:37.454Z,12.70
2018-12-22T11:07:08.489Z,12.70
2018-12-22T11:09:39.507Z,12.70
2018-12-22T11:12:10.493Z,12.70
2018-12-22T11:14:41.483Z,12.70
2018-12-22T11:17:12.477Z,12.70
2018-12-22T11:19:43.508Z,12.80
2018-12-22T11:22:14.531Z,12.80
2018-12-22T11:24:45.504Z,12.70
2018-12-22T11:27:16.514Z,12.70
2018-12-22T11:29:47.638Z,12.80
2018-12-22T11:32:18.739Z,12.80
2018-12-22T11:34:49.740Z,12.80
2018-12-22T11:37:20.795Z,12.80
2018-12-22T11:39:51.826Z,12.80
2018-12-22T11:42:23.471Z,12.70
2018-12-22T11:44:54.626Z,12.80
2018-12-22T11:47:32.478Z,12.80
2018-12-22T11:50:03.828Z,12.80
2018-12-22T11:52:35.385Z,12.80
2018-12-22T11:55:07.388Z,12.80
2018-12-22T11:57:38.381Z,12.80
2018-12-22T12:00:10.960Z,12.80
2018-12-22T12:02:42.008Z,12.80
2018-12-22T12:05:12.995Z,12.80
2018-12-22T12:07:44.038Z,12.80
2018-12-22T12:10:15.048Z,12.70
2018-12-22T12:12:46.033Z,12.80
2018-12-22T12:15:20.453Z,12.80
2018-12-22T12:18:40.538Z,12.80
2018-12-22T12:21:11.513Z,12.80
2018-12-22T12:23:42.523Z,12.80
2018-12-22T12:26:13.549Z,12.90
2018-12-22T12:28:44.532Z,12.90
2018-12-22T12:31:15.531Z,12.90
2018-12-22T12:33:46.519Z,12.80
2018-12-22T12:36:17.483Z,12.90
2018-12-22T12:38:48.503Z,12.90
2018-12-22T12:41:19.564Z,12.90
2018-12-22T12:43:50.555Z,12.90
2018-12-22T12:46:22.665Z,12.90
2018-12-22T12:48:53.682Z,12.90
2018-12-22T12:51:24.677Z,12.90
2018-12-22T12:53:55.697Z,12.90
2018-12-22T12:56:27.576Z,12.90
2018-12-22T12:58:58.602Z,12.90
2018-12-22T13:01:29.642Z,12.80
2018-12-22T13:04:00.627Z,12.80
2018-12-22T13:06:32.021Z,12.80
2018-12-22T13:09:03.387Z,12.70
2018-12-22T13:11:34.399Z,12.60
2018-12-22T13:14:09.605Z,12.60
2018-12-22T13:16:40.642Z,12.50
2018-12-22T13:19:11.643Z,12.50
2018-12-22T13:21:45.885Z,12.60
2018-12-22T13:24:18.522Z,12.60
2018-12-22T13:26:49.767Z,12.60
2018-12-22T13:29:20.816Z,12.60
2018-12-22T13:31:51.890Z,12.50
2018-12-22T13:34:29.662Z,12.50
2018-12-22T13:37:00.721Z,12.50
2018-12-22T13:39:32.134Z,12.40
2018-12-22T13:42:03.230Z,12.40
2018-12-22T13:44:34.264Z,12.40
2018-12-22T13:47:05.331Z,12.40
2018-12-22T13:49:36.434Z,12.50
2018-12-22T13:52:07.526Z,12.50
2018-12-22T13:54:38.552Z,12.40
2018-12-22T13:57:09.662Z,12.40
2018-12-22T13:59:40.701Z,12.40
2018-12-22T14:02:18.122Z,12.40
2018-12-22T14:04:44.775Z,12.40
2018-12-22T14:07:15.767Z,12.40
2018-12-22T14:09:46.751Z,12.30
2018-12-22T14:12:17.776Z,12.20
2018-12-22T14:14:48.808Z,12.20
2018-12-22T14:17:24.984Z,12.20
2018-12-22T14:19:58.914Z,12.10
2018-12-22T14:22:31.972Z,12.10
2018-12-22T14:25:05.092Z,12.00
2018-12-22T14:27:36.122Z,11.90
2018-12-22T14:30:10.370Z,11.90
2018-12-22T14:32:41.398Z,11.90
2018-12-22T14:35:18.234Z,11.80
2018-12-22T14:37:49.233Z,11.80
2018-12-22T14:40:20.235Z,11.70
2018-12-22T14:42:51.348Z,11.70
2018-12-22T14:45:30.225Z,11.60
2018-12-22T14:48:01.281Z,11.50
2018-12-22T14:50:32.277Z,11.40
2018-12-22T14:53:03.943Z,11.40
2018-12-22T14:55:34.991Z,11.30
2018-12-22T14:58:18.929Z,11.20
2018-12-22T15:00:50.141Z,11.10
2018-12-22T15:03:21.179Z,11.00
2018-12-22T15:05:52.759Z,11.00
2018-12-22T15:08:23.793Z,10.90
2018-12-22T15:10:54.872Z,10.80
2018-12-22T15:13:26.820Z,10.70
2018-12-22T15:15:58.342Z,10.70
2018-12-22T15:18:29.403Z,10.60
2018-12-22T15:21:00.593Z,10.50
2018-12-22T15:23:31.588Z,10.40
2018-12-22T15:26:02.621Z,10.40
2018-12-22T15:28:33.607Z,10.30
2018-12-22T15:31:04.671Z,10.20
2018-12-22T15:33:42.368Z,10.20
2018-12-22T15:36:13.348Z,10.20
2018-12-22T15:38:44.385Z,10.10
2018-12-22T15:41:15.393Z,10.00
2018-12-22T15:43:46.513Z,10.00
2018-12-22T15:46:17.808Z,9.90
2018-12-22T15:48:48.805Z,9.80
2018-12-22T15:51:19.831Z,9.80
2018-12-22T15:53:50.871Z,9.70
2018-12-22T15:56:21.875Z,9.70
2018-12-22T15:58:52.862Z,9.60
2018-12-22T16:01:23.862Z,9.50
2018-12-22T16:03:54.865Z,9.50
2018-12-22T16:06:25.902Z,9.50
2018-12-22T16:08:56.919Z,9.50
2018-12-22T16:11:27.913Z,9.40
2018-12-22T16:13:58.911Z,9.40
2018-12-22T16:16:29.903Z,9.30
2018-12-22T16:19:00.863Z,9.30
2018-12-22T16:21:31.890Z,9.20
2018-12-22T16:24:02.937Z,9.20
2018-12-22T16:26:33.950Z,9.20
2018-12-22T16:29:15.401Z,9.10
2018-12-22T16:31:46.406Z,9.10
2018-12-22T16:34:17.442Z,9.10
2018-12-22T16:36:48.438Z,9.00
2018-12-22T16:39:19.463Z,9.00
2018-12-22T16:41:50.493Z,9.00
2018-12-22T16:44:21.545Z,9.10
2018-12-22T16:46:52.577Z,9.10
2018-12-22T16:49:23.697Z,9.10
2018-12-22T16:51:54.700Z,9.10
2018-12-22T16:54:26.200Z,9.10
2018-12-22T16:56:57.183Z,9.10
2018-12-22T16:59:30.112Z,9.10
2018-12-22T17:02:08.556Z,9.10
2018-12-22T17:04:39.617Z,9.00
2018-12-22T17:07:10.674Z,9.00
2018-12-22T17:09:41.665Z,9.00
2018-12-22T17:12:12.697Z,8.90
2018-12-22T17:14:47.891Z,8.90
2018-12-22T17:17:18.903Z,8.90
2018-12-22T17:19:49.916Z,8.90
2018-12-22T17:22:29.336Z,8.90
2018-12-22T17:26:10.444Z,8.90
2018-12-22T17:28:41.573Z,8.90
2018-12-22T17:31:12.578Z,8.80
2018-12-22T17:33:44.226Z,8.80
2018-12-22T17:36:15.716Z,8.80
2018-12-22T17:38:46.768Z,8.80
2018-12-22T17:41:21.601Z,8.80
2018-12-22T17:43:52.612Z,8.80
2018-12-22T17:46:23.627Z,8.80
2018-12-22T17:48:54.620Z,8.80
2018-12-22T17:51:26.149Z,8.90
2018-12-22T17:53:57.259Z,8.90
2018-12-22T17:56:28.395Z,9.00
2018-12-22T17:58:59.401Z,9.00
2018-12-22T18:01:30.426Z,9.00
2018-12-22T18:04:01.491Z,9.10
2018-12-22T18:06:32.471Z,9.10
2018-12-22T18:09:04.740Z,9.10
2018-12-22T18:11:35.768Z,9.10
2018-12-22T18:14:06.788Z,9.10
2018-12-22T18:16:37.790Z,9.10
2018-12-22T18:19:08.788Z,9.10
2018-12-22T18:21:39.800Z,9.10
2018-12-22T18:24:17.543Z,9.00
2018-12-22T18:26:48.579Z,9.00
2018-12-22T18:29:19.598Z,8.90
2018-12-22T18:31:50.611Z,8.90
2018-12-22T18:34:21.605Z,8.80
2018-12-22T18:36:52.611Z,8.80
2018-12-22T18:39:23.689Z,8.80
2018-12-22T18:41:54.668Z,8.80
2018-12-22T18:44:25.667Z,8.70
2018-12-22T18:46:56.707Z,8.70
2018-12-22T18:49:27.716Z,8.70
2018-12-22T18:51:58.717Z,8.60
2018-12-22T18:54:29.748Z,8.60
2018-12-22T18:57:00.875Z,8.50
2018-12-22T18:59:31.911Z,8.50
2018-12-22T19:02:02.922Z,8.40
2018-12-22T19:04:34.004Z,8.40
2018-12-22T19:07:05.029Z,8.40
2018-12-22T19:09:37.695Z,8.40
2018-12-22T19:12:13.119Z,8.40
2018-12-22T19:14:51.771Z,8.30
2018-12-22T19:17:22.775Z,8.30
2018-12-22T19:19:53.768Z,8.30
2018-12-22T19:22:24.769Z,8.30
2018-12-22T19:24:55.801Z,8.20
2018-12-22T19:27:26.775Z,8.20
2018-12-22T19:29:57.783Z,8.20
2018-12-22T19:32:28.797Z,8.20
2018-12-22T19:34:59.814Z,8.20
2018-12-22T19:37:30.797Z,8.20
2018-12-22T19:40:01.835Z,8.20
2018-12-22T19:42:32.938Z,8.20
2018-12-22T19:45:05.335Z,8.20
2018-12-22T19:47:36.367Z,8.20
2018-12-22T19:50:07.655Z,8.30
2018-12-22T19:52:38.740Z,8.30
2018-12-22T19:55:09.740Z,8.30
2018-12-22T19:57:40.747Z,8.20
2018-12-22T20:00:11.758Z,8.20
2018-12-22T20:02:42.774Z,8.20
2018-12-22T20:05:13.782Z,8.10
2018-12-22T20:07:44.758Z,8.10
2018-12-22T20:10:15.751Z,8.10
2018-12-22T20:12:46.752Z,8.10
2018-12-22T20:15:17.806Z,8.10
2018-12-22T20:17:48.808Z,8.00
2018-12-22T20:20:20.475Z,8.00
2018-12-22T20:22:55.059Z,8.00
2018-12-22T20:25:26.101Z,7.90
2018-12-22T20:27:57.153Z,7.90
2018-12-22T20:30:28.152Z,7.90
2018-12-22T20:32:59.140Z,7.90
2018-12-22T20:35:30.167Z,7.90
2018-12-22T20:38:01.161Z,7.90
2018-12-22T20:40:32.179Z,7.80
2018-12-22T20:43:03.139Z,7.80
2018-12-22T20:45:34.143Z,7.80
2018-12-22T20:48:05.171Z,7.80
2018-12-22T20:50:36.168Z,7.70
2018-12-22T20:53:07.264Z,7.70
2018-12-22T20:55:38.267Z,7.70
2018-12-22T20:58:09.259Z,7.70
2018-12-22T21:00:40.277Z,7.70
2018-12-22T21:03:11.279Z,7.60
2018-12-22T21:05:47.375Z,7.60
2018-12-22T21:08:18.411Z,7.60
2018-12-22T21:10:49.411Z,7.60
2018-12-22T21:13:23.351Z,7.60
2018-12-22T21:15:54.359Z,7.60
2018-12-22T21:18:25.341Z,7.60
2018-12-22T21:20:56.355Z,7.70
2018-12-22T21:23:27.392Z,7.70
2018-12-22T21:25:58.423Z,7.70
2018-12-22T21:28:29.443Z,7.70
2018-12-22T21:31:00.454Z,7.70
2018-12-22T21:33:31.428Z,7.70
2018-12-22T21:36:02.474Z,7.70
2018-12-22T21:38:33.499Z,7.70
2018-12-22T21:41:04.620Z,7.70
2018-12-22T21:43:35.624Z,7.70
2018-12-22T21:46:06.628Z,7.70
2018-12-22T21:48:37.613Z,7.70
2018-12-22T21:51:08.647Z,7.70
2018-12-22T21:53:39.675Z,7.70
2018-12-22T21:56:10.681Z,7.70
2018-12-22T21:58:41.692Z,7.70
2018-12-22T22:01:12.727Z,7.70
2018-12-22T22:03:43.768Z,7.70
2018-12-22T22:06:14.788Z,7.70
2018-12-22T22:08:45.766Z,7.70
2018-12-22T22:11:16.941Z,7.70
2018-12-22T22:13:48.061Z,7.70
2018-12-22T22:16:19.070Z,7.70
2018-12-22T22:18:50.054Z,7.70
2018-12-22T22:21:21.070Z,7.70
2018-12-22T22:23:52.045Z,7.80
2018-12-22T22:26:23.014Z,7.70
2018-12-22T22:28:54.001Z,7.70
2018-12-22T22:31:25.051Z,7.70
2018-12-22T22:33:56.066Z,7.70
2018-12-22T22:36:27.087Z,7.70
2018-12-22T22:38:58.130Z,7.70
2018-12-22T22:41:29.130Z,7.60
2018-12-22T22:44:00.097Z,7.60
2018-12-22T22:46:31.116Z,7.70
2018-12-22T22:49:02.128Z,7.60
2018-12-22T22:51:33.123Z,7.60
2018-12-22T22:54:04.199Z,7.60
2018-12-22T22:56:35.282Z,7.60
2018-12-22T22:59:06.250Z,7.50
2018-12-22T23:01:43.776Z,7.50
2018-12-22T23:04:22.533Z,7.50
2018-12-22T23:06:53.705Z,7.50
2018-12-22T23:09:24.675Z,7.50
2018-12-22T23:11:56.192Z,7.50
2018-12-22T23:14:27.196Z,7.50
2018-12-22T23:16:58.275Z,7.40
2018-12-22T23:19:29.263Z,7.40
2018-12-22T23:22:00.260Z,7.50
2018-12-22T23:24:31.242Z,7.50
2018-12-22T23:27:02.240Z,7.50
2018-12-22T23:29:33.244Z,7.50
2018-12-22T23:32:04.393Z,7.50
2018-12-22T23:34:35.405Z,7.60
2018-12-22T23:37:06.509Z,7.50
2018-12-22T23:39:37.511Z,7.50
2018-12-22T23:42:08.815Z,7.40
2018-12-22T23:44:39.808Z,7.40
2018-12-22T23:47:10.779Z,7.30
2018-12-22T23:49:41.879Z,7.30
2018-12-22T23:52:12.899Z,7.30
2018-12-22T23:54:43.883Z,7.30
2018-12-22T23:57:14.872Z,7.30
2018-12-22T23:59:45.854Z,7.30
